Time;durP1;ratioP1;P1;durP2;ratioP2;P2;SDS_P1;SDS_P2;PMS_P1;PMS_P2;Temp;Humidity;BMP_temperature;BMP_pressure;BME280_temperature;BME280_humidity;BME280_pressure;Samples;Min_cycle;Max_cycle;Signal;HPM_P1;HPM_P2
2023/05/27 00:00:54;;;;;;;;;;;20.90;47.60;;;;;;5085871;28;19916;-53
2023/05/27 00:03:19;;;;;;;;;;;20.90;47.70;;;;;;5085505;28;19923;-52
2023/05/27 00:05:45;;;;;;;;;;;20.90;47.60;;;;;;5089634;28;19912;-52
2023/05/27 00:08:10;;;;;;;;;;;20.90;47.60;;;;;;5082427;28;19928;-53
2023/05/27 00:10:36;;;;;;;;;;;20.80;47.50;;;;;;5086077;28;20015;-53
2023/05/27 00:13:01;;;;;;;;;;;20.80;47.50;;;;;;5090862;28;19912;-53
2023/05/27 00:15:27;;;;;;;;;;;20.80;47.60;;;;;;5067808;28;19912;-52
2023/05/27 00:17:52;;;;;;;;;;;20.90;47.60;;;;;;5083778;28;19908;-53
2023/05/27 00:20:19;;;;;;;;;;;20.90;47.60;;;;;;5081711;28;19916;-53
2023/05/27 00:22:44;;;;;;;;;;;20.90;47.50;;;;;;5061102;28;19912;-52
2023/05/27 00:25:10;;;;;;;;;;;20.90;47.60;;;;;;5089297;28;19923;-53
2023/05/27 00:27:35;;;;;;;;;;;20.80;47.70;;;;;;5091164;28;19920;-53
2023/05/27 00:30:01;;;;;;;;;;;20.80;47.70;;;;;;5093601;28;19951;-53
2023/05/27 00:32:27;;;;;;;;;;;20.80;47.60;;;;;;5087276;28;20020;-52
2023/05/27 00:34:52;;;;;;;;;;;20.80;47.70;;;;;;5082662;28;19908;-53
2023/05/27 00:37:17;;;;;;;;;;;20.80;47.50;;;;;;5093915;28;20272;-52
2023/05/27 00:39:43;;;;;;;;;;;20.70;47.60;;;;;;5074887;28;20296;-53
2023/05/27 00:42:08;;;;;;;;;;;20.80;47.60;;;;;;5073312;28;19920;-53
2023/05/27 00:44:34;;;;;;;;;;;20.70;47.80;;;;;;5067941;28;20230;-52
2023/05/27 00:47:00;;;;;;;;;;;20.70;47.70;;;;;;5092197;28;19998;-53
2023/05/27 00:49:26;;;;;;;;;;;20.70;47.70;;;;;;5091308;28;19923;-53
2023/05/27 00:51:52;;;;;;;;;;;20.70;47.70;;;;;;5091712;28;20276;-53
2023/05/27 00:54:17;;;;;;;;;;;20.70;47.60;;;;;;5092389;28;19919;-54
2023/05/27 00:56:43;;;;;;;;;;;20.70;47.40;;;;;;5091503;28;20392;-53
2023/05/27 00:59:08;;;;;;;;;;;20.70;47.50;;;;;;5091964;28;20444;-52
2023/05/27 01:01:36;;;;;;;;;;;20.70;47.30;;;;;;5092714;28;19927;-53
2023/05/27 01:04:02;;;;;;;;;;;20.70;47.30;;;;;;5097556;28;20006;-53
2023/05/27 01:06:30;;;;;;;;;;;20.70;47.30;;;;;;5087862;28;20756;-53
2023/05/27 01:08:59;;;;;;;;;;;20.70;47.40;;;;;;5086323;28;20034;-52
2023/05/27 01:11:27;;;;;;;;;;;20.70;47.50;;;;;;5077314;28;19916;-53
2023/05/27 01:13:55;;;;;;;;;;;20.70;47.40;;;;;;5074627;28;19912;-53
2023/05/27 01:16:21;;;;;;;;;;;20.70;47.30;;;;;;5085611;28;20015;-52
2023/05/27 01:18:46;;;;;;;;;;;20.70;47.10;;;;;;5073007;28;20018;-53
2023/05/27 01:21:16;;;;;;;;;;;20.70;47.00;;;;;;5071420;28;19952;-52
2023/05/27 01:23:42;;;;;;;;;;;20.80;47.00;;;;;;5085764;28;19920;-52
2023/05/27 01:26:07;;;;;;;;;;;20.90;47.10;;;;;;5064273;28;19965;-53
2023/05/27 01:28:33;;;;;;;;;;;20.90;47.10;;;;;;5092759;28;20002;-52
2023/05/27 01:31:01;;;;;;;;;;;20.90;47.00;;;;;;5069765;28;19913;-52
2023/05/27 01:33:26;;;;;;;;;;;20.90;46.90;;;;;;5087183;28;20343;-53
2023/05/27 01:35:55;;;;;;;;;;;20.90;47.00;;;;;;5081830;28;19912;-52
2023/05/27 01:38:21;;;;;;;;;;;20.90;47.00;;;;;;5067518;28;20368;-52
2023/05/27 01:40:47;;;;;;;;;;;20.90;47.00;;;;;;5043813;28;19928;-53
2023/05/27 01:43:13;;;;;;;;;;;20.90;46.90;;;;;;5071789;28;19919;-53
2023/05/27 01:45:38;;;;;;;;;;;20.90;46.90;;;;;;5092799;28;19916;-53
2023/05/27 01:48:04;;;;;;;;;;;20.90;46.90;;;;;;5086885;28;19916;-53
2023/05/27 01:50:33;;;;;;;;;;;20.90;46.70;;;;;;5087558;28;19916;-52
2023/05/27 01:52:59;;;;;;;;;;;21.00;46.80;;;;;;5091727;28;19916;-53
2023/05/27 01:55:24;;;;;;;;;;;21.00;46.70;;;;;;5090851;28;19916;-53
2023/05/27 01:57:50;;;;;;;;;;;21.00;47.40;;;;;;5086951;28;19957;-52
2023/05/27 02:00:16;;;;;;;;;;;21.00;46.80;;;;;;5086842;28;19927;-53
2023/05/27 02:02:41;;;;;;;;;;;21.00;46.70;;;;;;5086730;28;19965;-52
2023/05/27 02:05:07;;;;;;;;;;;21.00;46.70;;;;;;5084688;28;19916;-53
2023/05/27 02:07:32;;;;;;;;;;;21.00;46.70;;;;;;5068130;28;19912;-53
2023/05/27 02:09:58;;;;;;;;;;;21.00;46.60;;;;;;5084253;28;20007;-52
2023/05/27 02:12:23;;;;;;;;;;;21.00;46.60;;;;;;5067054;28;20292;-52
2023/05/27 02:14:49;;;;;;;;;;;20.90;46.50;;;;;;5085929;28;20004;-52
2023/05/27 02:17:14;;;;;;;;;;;20.90;46.50;;;;;;5088271;28;19916;-55
2023/05/27 02:19:40;;;;;;;;;;;20.90;46.50;;;;;;5083779;28;19920;-52
2023/05/27 02:22:05;;;;;;;;;;;20.90;46.60;;;;;;5091695;28;20435;-52
2023/05/27 02:24:31;;;;;;;;;;;20.90;46.60;;;;;;5086280;28;19922;-52
2023/05/27 02:26:56;;;;;;;;;;;20.90;46.70;;;;;;5068362;28;19916;-53
2023/05/27 02:29:22;;;;;;;;;;;20.80;46.70;;;;;;5083902;28;20002;-53
2023/05/27 02:31:47;;;;;;;;;;;20.80;46.60;;;;;;5083405;28;20017;-53
2023/05/27 02:34:12;;;;;;;;;;;20.80;46.70;;;;;;5064156;28;20326;-53
2023/05/27 02:36:38;;;;;;;;;;;20.80;46.70;;;;;;5085428;28;19922;-53
2023/05/27 02:39:04;;;;;;;;;;;20.80;46.70;;;;;;5089140;28;19963;-52
2023/05/27 02:41:29;;;;;;;;;;;20.80;46.70;;;;;;5085370;28;20400;-53
2023/05/27 02:43:55;;;;;;;;;;;20.80;46.60;;;;;;5087713;28;19959;-53
2023/05/27 02:46:20;;;;;;;;;;;20.70;46.60;;;;;;5085182;28;19912;-52
2023/05/27 02:48:46;;;;;;;;;;;20.70;46.50;;;;;;5068910;28;19918;-52
2023/05/27 02:51:12;;;;;;;;;;;20.70;46.70;;;;;;5087510;28;19955;-52
2023/05/27 02:53:37;;;;;;;;;;;20.70;46.70;;;;;;5088856;28;20303;-53
2023/05/27 02:56:02;;;;;;;;;;;20.70;46.70;;;;;;5085266;28;20003;-53
2023/05/27 02:58:28;;;;;;;;;;;20.70;46.60;;;;;;5052047;28;19920;-53
2023/05/27 03:00:53;;;;;;;;;;;20.70;46.60;;;;;;5059277;28;19924;-52
2023/05/27 03:03:19;;;;;;;;;;;20.70;46.70;;;;;;5085327;28;19912;-53
2023/05/27 03:05:45;;;;;;;;;;;20.70;46.60;;;;;;5087673;28;20368;-53
2023/05/27 03:08:10;;;;;;;;;;;20.70;46.70;;;;;;5088402;28;19947;-53
2023/05/27 03:10:35;;;;;;;;;;;20.70;46.60;;;;;;5071116;28;19912;-53
2023/05/27 03:13:01;;;;;;;;;;;20.70;47.20;;;;;;5087979;28;19916;-52
2023/05/27 03:15:29;;;;;;;;;;;20.70;46.60;;;;;;5060617;28;19933;-53
2023/05/27 03:17:55;;;;;;;;;;;20.70;46.60;;;;;;5088403;28;19927;-53
2023/05/27 03:20:20;;;;;;;;;;;20.70;46.50;;;;;;5083168;28;19912;-53
2023/05/27 03:22:46;;;;;;;;;;;20.70;46.50;;;;;;5086466;28;19912;-53
2023/05/27 03:25:11;;;;;;;;;;;20.70;46.50;;;;;;5068244;28;19939;-53
2023/05/27 03:27:37;;;;;;;;;;;20.70;46.60;;;;;;5085796;28;20057;-53
2023/05/27 03:30:04;;;;;;;;;;;20.60;46.40;;;;;;5090773;28;19913;-53
2023/05/27 03:32:29;;;;;;;;;;;20.60;46.40;;;;;;5084402;28;19916;-52
2023/05/27 03:34:55;;;;;;;;;;;20.60;46.40;;;;;;5068568;28;19962;-53
2023/05/27 03:37:20;;;;;;;;;;;20.60;46.40;;;;;;5083707;28;19955;-53
2023/05/27 03:39:46;;;;;;;;;;;20.60;46.40;;;;;;5081446;28;19916;-55
2023/05/27 03:42:11;;;;;;;;;;;20.60;46.40;;;;;;5086155;28;19920;-52
2023/05/27 03:44:36;;;;;;;;;;;20.60;46.60;;;;;;5085292;28;20661;-53
2023/05/27 03:47:02;;;;;;;;;;;20.60;46.60;;;;;;5086557;28;20299;-53
2023/05/27 03:49:27;;;;;;;;;;;20.60;46.60;;;;;;5081458;28;20301;-52
2023/05/27 03:51:53;;;;;;;;;;;20.60;46.40;;;;;;5083284;28;19924;-53
2023/05/27 03:54:18;;;;;;;;;;;20.60;46.40;;;;;;5082537;28;19941;-53
2023/05/27 03:56:44;;;;;;;;;;;20.60;46.40;;;;;;5087897;28;19916;-53
2023/05/27 03:59:11;;;;;;;;;;;20.50;46.50;;;;;;5071275;28;19944;-52
2023/05/27 04:01:37;;;;;;;;;;;20.50;46.50;;;;;;5092300;28;19923;-52
2023/05/27 04:04:03;;;;;;;;;;;20.50;46.50;;;;;;5097320;28;19957;-52
2023/05/27 04:06:28;;;;;;;;;;;20.60;46.50;;;;;;5095133;28;19920;-53
2023/05/27 04:08:53;;;;;;;;;;;20.60;46.40;;;;;;5086008;28;20431;-53
2023/05/27 04:11:19;;;;;;;;;;;20.60;46.40;;;;;;5065843;28;20358;-54
2023/05/27 04:13:45;;;;;;;;;;;20.50;46.40;;;;;;5092104;28;20295;-52
2023/05/27 04:16:10;;;;;;;;;;;20.50;46.50;;;;;;5084891;28;20348;-52
2023/05/27 04:18:35;;;;;;;;;;;20.50;46.50;;;;;;5084164;28;20395;-52
2023/05/27 04:21:01;;;;;;;;;;;20.50;46.60;;;;;;5055184;28;20376;-52
2023/05/27 04:23:26;;;;;;;;;;;20.50;46.50;;;;;;5071110;28;20492;-51
2023/05/27 04:25:52;;;;;;;;;;;20.50;46.50;;;;;;5090142;28;19912;-54
2023/05/27 04:28:18;;;;;;;;;;;20.50;46.40;;;;;;5072034;28;20394;-54
2023/05/27 04:30:45;;;;;;;;;;;20.50;46.40;;;;;;5089706;28;19912;-52
2023/05/27 04:33:11;;;;;;;;;;;20.50;46.40;;;;;;5089897;28;19931;-52
2023/05/27 04:35:36;;;;;;;;;;;20.50;46.40;;;;;;5089695;28;19983;-52
2023/05/27 04:38:02;;;;;;;;;;;20.50;46.40;;;;;;5085703;28;19922;-52
2023/05/27 04:40:28;;;;;;;;;;;20.50;46.50;;;;;;5088972;28;20284;-52
2023/05/27 04:42:54;;;;;;;;;;;20.50;46.50;;;;;;5076695;28;19912;-55
2023/05/27 04:45:19;;;;;;;;;;;20.50;46.50;;;;;;5091868;28;20696;-52
2023/05/27 04:47:45;;;;;;;;;;;20.50;46.40;;;;;;5093043;28;19920;-52
2023/05/27 04:50:10;;;;;;;;;;;20.40;46.40;;;;;;5070433;28;20372;-52
2023/05/27 04:52:41;;;;;;;;;;;20.40;46.40;;;;;;5087292;28;19916;-54
2023/05/27 04:55:07;;;;;;;;;;;20.50;46.50;;;;;;5090917;28;19916;-54
2023/05/27 04:57:33;;;;;;;;;;;20.40;46.40;;;;;;5088193;28;19951;-53
2023/05/27 05:00:17;;;;;;;;;;;20.40;46.40;;;;;;5086072;28;20384;-55
2023/05/27 05:02:43;;;;;;;;;;;20.40;46.50;;;;;;5094638;28;19920;-54
2023/05/27 05:05:09;;;;;;;;;;;20.40;46.50;;;;;;5088045;28;19920;-54
2023/05/27 05:07:39;;;;;;;;;;;20.40;46.50;;;;;;5090845;28;19965;-54
2023/05/27 05:10:06;;;;;;;;;;;20.40;46.60;;;;;;5087498;28;19957;-54
2023/05/27 05:12:31;;;;;;;;;;;20.40;46.50;;;;;;5090363;28;20666;-54
2023/05/27 05:14:57;;;;;;;;;;;20.40;46.50;;;;;;5082478;28;19916;-54
2023/05/27 05:17:24;;;;;;;;;;;20.40;46.50;;;;;;5085267;28;19959;-54
2023/05/27 05:19:49;;;;;;;;;;;20.40;46.50;;;;;;5087560;28;19916;-54
2023/05/27 05:22:18;;;;;;;;;;;20.40;46.50;;;;;;5090871;28;19916;-54
2023/05/27 05:24:46;;;;;;;;;;;20.40;46.60;;;;;;5086891;28;19923;-54
2023/05/27 05:27:11;;;;;;;;;;;20.40;46.60;;;;;;5084863;28;19920;-54
2023/05/27 05:29:37;;;;;;;;;;;20.40;46.60;;;;;;5086229;28;20390;-54
2023/05/27 05:32:03;;;;;;;;;;;20.40;46.60;;;;;;5085238;28;19969;-54
2023/05/27 05:34:28;;;;;;;;;;;20.40;46.70;;;;;;5064583;28;19931;-54
2023/05/27 05:36:54;;;;;;;;;;;20.40;46.70;;;;;;5092997;28;19938;-54
2023/05/27 05:39:20;;;;;;;;;;;20.40;46.70;;;;;;5084938;28;19938;-54
2023/05/27 05:41:45;;;;;;;;;;;20.40;46.70;;;;;;5073689;28;19921;-54
2023/05/27 05:44:11;;;;;;;;;;;20.40;46.80;;;;;;5091754;28;19927;-54
2023/05/27 05:46:37;;;;;;;;;;;20.40;46.70;;;;;;5085632;28;19922;-54
2023/05/27 05:49:02;;;;;;;;;;;20.40;46.70;;;;;;5085369;28;19920;-54
2023/05/27 05:51:27;;;;;;;;;;;20.40;46.80;;;;;;5089436;28;20025;-55
2023/05/27 05:53:53;;;;;;;;;;;20.40;46.80;;;;;;5089852;28;20010;-55
2023/05/27 05:56:18;;;;;;;;;;;20.40;46.80;;;;;;5078711;28;19916;-54
2023/05/27 05:58:44;;;;;;;;;;;20.40;46.80;;;;;;5065217;28;20287;-54
2023/05/27 06:01:09;;;;;;;;;;;20.40;46.80;;;;;;5085893;28;19964;-54
2023/05/27 06:03:35;;;;;;;;;;;20.40;46.80;;;;;;5090326;28;19912;-54
2023/05/27 06:06:02;;;;;;;;;;;20.40;46.90;;;;;;5086239;28;19919;-54
2023/05/27 06:08:27;;;;;;;;;;;20.40;47.00;;;;;;5086707;28;20321;-54
2023/05/27 06:10:52;;;;;;;;;;;20.40;47.10;;;;;;5078992;28;19912;-54
2023/05/27 06:13:18;;;;;;;;;;;20.40;47.00;;;;;;5091386;28;19988;-54
2023/05/27 06:15:43;;;;;;;;;;;20.40;47.00;;;;;;5089870;28;19912;-53
2023/05/27 06:18:09;;;;;;;;;;;20.40;47.00;;;;;;5088812;28;19912;-54
2023/05/27 06:20:34;;;;;;;;;;;20.40;47.00;;;;;;5056975;28;19912;-55
2023/05/27 06:23:00;;;;;;;;;;;20.40;47.00;;;;;;5064662;28;20388;-55
2023/05/27 06:25:25;;;;;;;;;;;20.40;47.00;;;;;;5083549;28;20395;-54
2023/05/27 06:27:51;;;;;;;;;;;20.40;47.10;;;;;;5090376;28;19972;-54
2023/05/27 06:30:16;;;;;;;;;;;20.40;47.10;;;;;;5074449;28;20393;-54
2023/05/27 06:32:42;;;;;;;;;;;20.40;47.10;;;;;;5073811;28;19966;-54
2023/05/27 06:35:07;;;;;;;;;;;20.40;47.30;;;;;;5086855;28;19912;-54
2023/05/27 06:37:33;;;;;;;;;;;20.40;47.20;;;;;;5086600;28;21709;-53
2023/05/27 06:39:58;;;;;;;;;;;20.40;47.20;;;;;;5065115;28;19947;-54
2023/05/27 06:42:23;;;;;;;;;;;20.50;47.20;;;;;;5087323;28;19916;-54
2023/05/27 06:44:49;;;;;;;;;;;20.40;47.20;;;;;;5081709;28;19916;-55
2023/05/27 06:47:14;;;;;;;;;;;20.50;47.30;;;;;;5067222;28;19971;-54
2023/05/27 06:49:40;;;;;;;;;;;20.50;47.40;;;;;;5057042;28;19921;-54
2023/05/27 06:52:06;;;;;;;;;;;20.40;47.40;;;;;;5070383;28;20281;-54
2023/05/27 06:54:31;;;;;;;;;;;20.40;47.40;;;;;;5060522;28;19924;-54
2023/05/27 06:56:57;;;;;;;;;;;20.40;47.40;;;;;;5061419;28;19916;-54
2023/05/27 06:59:22;;;;;;;;;;;20.50;47.50;;;;;;5055308;28;20286;-54
2023/05/27 07:01:48;;;;;;;;;;;20.50;47.50;;;;;;5062183;28;20157;-54
2023/05/27 07:04:13;;;;;;;;;;;20.50;47.50;;;;;;5065738;28;19928;-54
2023/05/27 07:06:39;;;;;;;;;;;20.50;47.50;;;;;;5064633;28;20325;-54
2023/05/27 07:09:04;;;;;;;;;;;20.50;47.60;;;;;;5069754;28;19917;-54
2023/05/27 07:11:31;;;;;;;;;;;20.50;47.60;;;;;;5064905;28;19912;-54
2023/05/27 07:13:56;;;;;;;;;;;20.50;47.60;;;;;;5064152;28;19916;-53
2023/05/27 07:16:22;;;;;;;;;;;20.50;47.60;;;;;;5063138;28;19917;-54
2023/05/27 07:18:47;;;;;;;;;;;20.50;47.60;;;;;;5062202;28;19965;-54
2023/05/27 07:21:12;;;;;;;;;;;20.50;47.70;;;;;;5065907;28;19920;-53
2023/05/27 07:23:38;;;;;;;;;;;20.50;47.70;;;;;;5067891;28;19924;-53
2023/05/27 07:26:03;;;;;;;;;;;20.50;47.70;;;;;;5060425;28;19920;-54
2023/05/27 07:28:29;;;;;;;;;;;20.50;47.80;;;;;;5056552;28;19920;-54
2023/05/27 07:30:55;;;;;;;;;;;20.50;47.80;;;;;;5067282;28;19913;-54
2023/05/27 07:33:20;;;;;;;;;;;20.50;47.90;;;;;;5067682;28;19916;-54
2023/05/27 07:35:46;;;;;;;;;;;20.50;47.90;;;;;;5073822;28;20374;-54
2023/05/27 07:38:11;;;;;;;;;;;20.50;48.00;;;;;;5063030;28;19970;-54
2023/05/27 07:40:37;;;;;;;;;;;20.50;48.00;;;;;;5063212;28;19923;-53
2023/05/27 07:43:02;;;;;;;;;;;20.50;48.00;;;;;;5068510;28;19923;-54
2023/05/27 07:45:28;;;;;;;;;;;20.50;48.00;;;;;;5069784;28;19908;-54
2023/05/27 07:47:53;;;;;;;;;;;20.40;47.80;;;;;;4986033;28;1845904;-54
2023/05/27 07:50:19;;;;;;;;;;;20.50;47.90;;;;;;5062103;28;19970;-53
2023/05/27 07:52:44;;;;;;;;;;;20.50;48.00;;;;;;5066710;28;19908;-53
2023/05/27 07:55:10;;;;;;;;;;;20.40;47.90;;;;;;5069279;28;19912;-54
2023/05/27 07:57:35;;;;;;;;;;;20.50;47.90;;;;;;5069730;28;20014;-53
2023/05/27 08:00:01;;;;;;;;;;;20.40;47.90;;;;;;5068942;28;19926;-53
2023/05/27 08:02:27;;;;;;;;;;;20.40;47.90;;;;;;5060806;28;19927;-53
2023/05/27 08:04:52;;;;;;;;;;;20.50;48.10;;;;;;5058475;28;19913;-53
2023/05/27 08:07:17;;;;;;;;;;;20.40;48.00;;;;;;5066905;28;19951;-53
2023/05/27 08:09:43;;;;;;;;;;;20.50;48.00;;;;;;5069723;28;19912;-53
2023/05/27 08:12:08;;;;;;;;;;;20.50;48.00;;;;;;5064165;28;19966;-54
2023/05/27 08:14:34;;;;;;;;;;;20.50;48.00;;;;;;5066354;28;19932;-53
2023/05/27 08:17:00;;;;;;;;;;;20.50;48.00;;;;;;5066843;28;20605;-53
2023/05/27 08:19:25;;;;;;;;;;;20.50;48.00;;;;;;5066572;28;19948;-53
2023/05/27 08:21:50;;;;;;;;;;;20.60;48.00;;;;;;5060447;28;19939;-54
2023/05/27 08:24:16;;;;;;;;;;;20.60;48.00;;;;;;5054915;28;19917;-54
2023/05/27 08:26:42;;;;;;;;;;;20.60;47.90;;;;;;5068921;28;20403;-53
2023/05/27 08:29:07;;;;;;;;;;;20.60;48.00;;;;;;5059674;28;19913;-53
2023/05/27 08:31:33;;;;;;;;;;;20.60;48.00;;;;;;5065114;28;19919;-53
2023/05/27 08:33:59;;;;;;;;;;;20.70;48.00;;;;;;5057447;28;20327;-53
2023/05/27 08:36:24;;;;;;;;;;;20.70;47.90;;;;;;5068550;28;20337;-54
2023/05/27 08:38:50;;;;;;;;;;;20.70;47.90;;;;;;5058437;28;19917;-54
2023/05/27 08:41:15;;;;;;;;;;;20.70;48.20;;;;;;5070438;28;19916;-53
2023/05/27 08:43:41;;;;;;;;;;;20.80;48.70;;;;;;5071975;28;19912;-52
2023/05/27 08:46:07;;;;;;;;;;;20.80;48.20;;;;;;5067285;28;20388;-53
2023/05/27 08:48:32;;;;;;;;;;;20.80;48.30;;;;;;5090450;28;19920;-53
2023/05/27 08:50:59;;;;;;;;;;;20.90;48.40;;;;;;5089590;28;19912;-53
2023/05/27 08:53:25;;;;;;;;;;;20.90;48.40;;;;;;5094337;28;19912;-54
2023/05/27 08:55:51;;;;;;;;;;;20.90;48.40;;;;;;5089540;28;19931;-54
2023/05/27 08:58:16;;;;;;;;;;;20.90;49.00;;;;;;5093421;28;19912;-53
2023/05/27 09:00:42;;;;;;;;;;;21.00;48.80;;;;;;5093847;28;19916;-53
2023/05/27 09:03:07;;;;;;;;;;;20.90;48.70;;;;;;5065558;28;19916;-53
2023/05/27 09:05:33;;;;;;;;;;;20.90;48.90;;;;;;5066194;28;19951;-54
2023/05/27 09:07:58;;;;;;;;;;;21.00;48.90;;;;;;5086691;28;19919;-53
2023/05/27 09:10:34;;;;;;;;;;;20.90;49.20;;;;;;5090068;28;19987;-53
2023/05/27 09:12:59;;;;;;;;;;;21.00;49.30;;;;;;5071144;28;20339;-53
2023/05/27 09:15:26;;;;;;;;;;;21.00;49.20;;;;;;5092681;28;19955;-54
2023/05/27 09:17:51;;;;;;;;;;;21.00;49.10;;;;;;5093564;28;20019;-52
2023/05/27 09:20:17;;;;;;;;;;;21.00;49.00;;;;;;5090599;28;20027;-54
2023/05/27 09:22:42;;;;;;;;;;;21.00;48.70;;;;;;5075404;28;19939;-53
2023/05/27 09:25:08;;;;;;;;;;;21.00;48.80;;;;;;5086988;28;19999;-53
2023/05/27 09:27:33;;;;;;;;;;;21.00;48.60;;;;;;5087121;28;20010;-53
2023/05/27 09:30:06;;;;;;;;;;;21.00;48.50;;;;;;5071436;28;20000;-53
2023/05/27 09:32:32;;;;;;;;;;;21.00;48.60;;;;;;5086837;28;19953;-54
2023/05/27 09:34:58;;;;;;;;;;;21.00;48.70;;;;;;5081036;28;19958;-53
2023/05/27 09:37:32;;;;;;;;;;;21.00;48.90;;;;;;5084623;28;20448;-54
2023/05/27 09:39:58;;;;;;;;;;;21.00;48.30;;;;;;5094859;28;20572;-54
2023/05/27 09:42:23;;;;;;;;;;;21.10;48.40;;;;;;5064733;28;19924;-54
2023/05/27 09:44:49;;;;;;;;;;;21.10;47.80;;;;;;5083632;28;20391;-53
2023/05/27 09:47:15;;;;;;;;;;;21.10;48.20;;;;;;5061421;28;20391;-54
2023/05/27 09:49:41;;;;;;;;;;;21.00;48.40;;;;;;5091276;28;19912;-54
2023/05/27 09:52:07;;;;;;;;;;;21.00;48.20;;;;;;5081568;28;19938;-54
2023/05/27 09:54:33;;;;;;;;;;;21.10;48.30;;;;;;5088839;28;20303;-54
2023/05/27 09:56:58;;;;;;;;;;;21.10;48.00;;;;;;5093055;28;19912;-53
2023/05/27 09:59:24;;;;;;;;;;;21.10;48.10;;;;;;5091925;28;19921;-55
2023/05/27 10:01:50;;;;;;;;;;;21.20;47.90;;;;;;5087905;28;19926;-55
2023/05/27 10:04:16;;;;;;;;;;;21.20;47.60;;;;;;5062270;28;19935;-54
2023/05/27 10:06:41;;;;;;;;;;;21.20;47.80;;;;;;5078912;28;19913;-54
2023/05/27 10:09:07;;;;;;;;;;;21.30;48.00;;;;;;5083057;28;19969;-54
2023/05/27 10:11:35;;;;;;;;;;;21.20;47.60;;;;;;5078726;28;19916;-54
2023/05/27 10:14:01;;;;;;;;;;;21.20;47.80;;;;;;5068994;28;19919;-55
2023/05/27 10:16:26;;;;;;;;;;;21.20;47.40;;;;;;5082211;28;20700;-55
2023/05/27 10:18:55;;;;;;;;;;;21.20;47.40;;;;;;5087610;28;20379;-54
2023/05/27 10:21:22;;;;;;;;;;;21.30;47.50;;;;;;5087041;28;19996;-55
2023/05/27 10:24:00;;;;;;;;;;;21.30;47.40;;;;;;5091523;28;20035;-55
2023/05/27 10:26:35;;;;;;;;;;;21.30;47.30;;;;;;5084900;28;19963;-54
2023/05/27 10:29:11;;;;;;;;;;;21.40;47.20;;;;;;5090477;28;19916;-55
2023/05/27 10:31:43;;;;;;;;;;;21.30;46.50;;;;;;5077776;28;19916;-55
2023/05/27 10:34:09;;;;;;;;;;;21.40;45.90;;;;;;5083560;28;19968;-55
2023/05/27 10:36:36;;;;;;;;;;;21.50;46.70;;;;;;5088398;28;19999;-55
2023/05/27 10:39:17;;;;;;;;;;;21.50;47.20;;;;;;5090665;28;19916;-55
2023/05/27 10:41:43;;;;;;;;;;;21.40;47.30;;;;;;5092066;28;19948;-55
2023/05/27 10:44:09;;;;;;;;;;;21.40;47.20;;;;;;5089234;28;19965;-55
2023/05/27 10:46:39;;;;;;;;;;;21.30;46.30;;;;;;5084226;28;19916;-55
2023/05/27 10:49:15;;;;;;;;;;;21.40;46.90;;;;;;5089352;28;20007;-54
2023/05/27 10:51:41;;;;;;;;;;;21.40;46.80;;;;;;5089512;28;20106;-53
2023/05/27 10:54:07;;;;;;;;;;;21.50;45.70;;;;;;5066940;28;20002;-54
2023/05/27 10:56:33;;;;;;;;;;;21.50;46.00;;;;;;5078132;28;20003;-55
2023/05/27 10:59:00;;;;;;;;;;;21.50;46.50;;;;;;5066553;28;20257;-55
2023/05/27 11:01:25;;;;;;;;;;;21.50;46.60;;;;;;5067668;28;19916;-55
2023/05/27 11:03:51;;;;;;;;;;;21.50;46.30;;;;;;5068746;28;20318;-55
2023/05/27 11:06:17;;;;;;;;;;;21.50;46.60;;;;;;5089196;28;19912;-55
2023/05/27 11:08:43;;;;;;;;;;;21.50;46.20;;;;;;5090713;28;20336;-55
2023/05/27 11:11:09;;;;;;;;;;;21.50;45.70;;;;;;5089763;28;19908;-54
2023/05/27 11:13:36;;;;;;;;;;;21.50;45.70;;;;;;5088104;28;20448;-55
2023/05/27 11:16:03;;;;;;;;;;;21.60;45.50;;;;;;5087289;28;19908;-55
2023/05/27 11:18:38;;;;;;;;;;;21.60;45.10;;;;;;5085058;28;20020;-55
2023/05/27 11:21:04;;;;;;;;;;;21.70;45.00;;;;;;5089520;28;19974;-55
2023/05/27 11:23:36;;;;;;;;;;;21.80;45.60;;;;;;5092991;28;19947;-55
2023/05/27 11:26:02;;;;;;;;;;;21.80;44.70;;;;;;5091149;28;19999;-55
2023/05/27 11:28:27;;;;;;;;;;;21.80;45.90;;;;;;5078379;28;20359;-55
2023/05/27 11:31:01;;;;;;;;;;;21.80;45.40;;;;;;5091299;28;19916;-55
2023/05/27 11:33:31;;;;;;;;;;;21.80;46.00;;;;;;5090911;28;19912;-55
2023/05/27 11:36:07;;;;;;;;;;;21.80;45.90;;;;;;5064457;28;20299;-55
2023/05/27 11:38:45;;;;;;;;;;;21.90;44.80;;;;;;5090202;28;19916;-55
2023/05/27 11:41:10;;;;;;;;;;;21.90;45.60;;;;;;5071754;28;19970;-55
2023/05/27 11:43:36;;;;;;;;;;;22.00;44.40;;;;;;5088986;28;19916;-55
2023/05/27 11:46:04;;;;;;;;;;;21.90;45.30;;;;;;5081052;28;19912;-55
2023/05/27 11:48:30;;;;;;;;;;;21.90;45.70;;;;;;5086346;28;19935;-55
2023/05/27 11:50:55;;;;;;;;;;;21.90;45.40;;;;;;5080677;28;19912;-55
2023/05/27 11:53:21;;;;;;;;;;;21.80;45.60;;;;;;5080654;28;19920;-55
2023/05/27 11:55:46;;;;;;;;;;;21.80;45.70;;;;;;5087787;28;20340;-55
2023/05/27 11:58:11;;;;;;;;;;;21.80;44.90;;;;;;5072657;28;19916;-55
2023/05/27 12:00:37;;;;;;;;;;;21.80;45.30;;;;;;5071317;28;19912;-55
2023/05/27 12:03:02;;;;;;;;;;;21.90;45.70;;;;;;5087745;28;19966;-55
2023/05/27 12:05:28;;;;;;;;;;;21.90;45.30;;;;;;5091744;28;20411;-55
2023/05/27 12:07:53;;;;;;;;;;;21.90;45.50;;;;;;5072778;28;19912;-55
2023/05/27 12:10:19;;;;;;;;;;;22.00;45.40;;;;;;5071869;28;19977;-55
2023/05/27 12:12:44;;;;;;;;;;;22.00;45.50;;;;;;5091498;28;19908;-52
2023/05/27 12:15:10;;;;;;;;;;;22.00;44.50;;;;;;5090463;28;19919;-55
2023/05/27 12:17:35;;;;;;;;;;;22.10;44.60;;;;;;5075791;28;19992;-55
2023/05/27 12:20:01;;;;;;;;;;;22.10;44.70;;;;;;5095271;28;19955;-55
2023/05/27 12:22:26;;;;;;;;;;;22.10;45.20;;;;;;5095324;28;20399;-55
2023/05/27 12:24:52;;;;;;;;;;;22.10;45.30;;;;;;5094904;28;20284;-55
2023/05/27 12:27:18;;;;;;;;;;;22.00;45.20;;;;;;5083996;28;19912;-55
2023/05/27 12:29:44;;;;;;;;;;;22.00;45.10;;;;;;5094153;28;19908;-55
2023/05/27 12:32:09;;;;;;;;;;;22.10;44.90;;;;;;5091572;28;19978;-55
2023/05/27 12:34:35;;;;;;;;;;;22.20;44.40;;;;;;5088616;28;19919;-55
2023/05/27 12:37:00;;;;;;;;;;;22.20;44.90;;;;;;5092356;28;19919;-56
2023/05/27 12:39:26;;;;;;;;;;;22.20;44.90;;;;;;5068947;28;19913;-55
2023/05/27 12:41:51;;;;;;;;;;;22.20;44.80;;;;;;5095110;28;20007;-55
2023/05/27 12:44:18;;;;;;;;;;;22.30;45.10;;;;;;5075797;28;20353;-55
2023/05/27 12:46:43;;;;;;;;;;;22.30;45.00;;;;;;5094879;28;19993;-55
2023/05/27 12:49:09;;;;;;;;;;;22.30;45.00;;;;;;5076714;28;20117;-55
2023/05/27 12:51:34;;;;;;;;;;;22.30;44.10;;;;;;5085112;28;19919;-55
2023/05/27 12:54:00;;;;;;;;;;;22.30;44.90;;;;;;5059934;28;19915;-55
2023/05/27 12:56:25;;;;;;;;;;;22.30;44.10;;;;;;5094050;28;19912;-55
2023/05/27 12:58:51;;;;;;;;;;;22.30;44.90;;;;;;5087575;28;20646;-55
2023/05/27 13:01:16;;;;;;;;;;;22.30;44.70;;;;;;5091488;28;19927;-55
2023/05/27 13:03:42;;;;;;;;;;;22.40;43.70;;;;;;5092788;28;19920;-55
2023/05/27 13:06:08;;;;;;;;;;;22.50;44.20;;;;;;5090510;28;19916;-54
2023/05/27 13:08:33;;;;;;;;;;;22.50;44.60;;;;;;5092801;28;19920;-55
2023/05/27 13:10:59;;;;;;;;;;;22.60;44.30;;;;;;5073669;28;20143;-55
2023/05/27 13:13:24;;;;;;;;;;;22.60;43.90;;;;;;5094654;28;20052;-55
2023/05/27 13:15:50;;;;;;;;;;;22.60;44.10;;;;;;5084551;28;20364;-54
2023/05/27 13:18:15;;;;;;;;;;;22.60;43.50;;;;;;5074348;28;19916;-55
2023/05/27 13:20:41;;;;;;;;;;;22.70;43.90;;;;;;5093147;28;19908;-55
2023/05/27 13:23:07;;;;;;;;;;;22.70;44.00;;;;;;5075537;28;20361;-54
2023/05/27 13:25:32;;;;;;;;;;;22.70;43.20;;;;;;5092360;28;19966;-55
2023/05/27 13:27:58;;;;;;;;;;;22.80;44.20;;;;;;5089165;28;19980;-55
2023/05/27 13:30:23;;;;;;;;;;;22.80;44.30;;;;;;5064457;28;20284;-55
2023/05/27 13:32:49;;;;;;;;;;;22.70;44.70;;;;;;5092759;28;19970;-55
2023/05/27 13:35:14;;;;;;;;;;;22.80;44.50;;;;;;5092727;28;19984;-55
2023/05/27 13:37:40;;;;;;;;;;;22.70;45.00;;;;;;5094417;28;19912;-55
2023/05/27 13:40:08;;;;;;;;;;;22.70;44.70;;;;;;5068367;28;19908;-55
2023/05/27 13:42:34;;;;;;;;;;;22.70;43.60;;;;;;5092977;28;19920;-54
2023/05/27 13:45:00;;;;;;;;;;;22.70;43.90;;;;;;5093728;28;20371;-55
2023/05/27 13:47:25;;;;;;;;;;;22.60;43.90;;;;;;5075652;28;19924;-55
2023/05/27 13:49:51;;;;;;;;;;;22.60;44.60;;;;;;5053918;28;20300;-55
2023/05/27 13:52:16;;;;;;;;;;;22.60;44.90;;;;;;5087358;28;20096;-55
2023/05/27 13:54:42;;;;;;;;;;;22.60;44.10;;;;;;5071650;28;19992;-55
2023/05/27 13:57:07;;;;;;;;;;;22.70;44.60;;;;;;5092904;28;20417;-55
2023/05/27 13:59:33;;;;;;;;;;;22.80;43.90;;;;;;5091651;28;19916;-55
2023/05/27 14:01:58;;;;;;;;;;;22.70;44.10;;;;;;5092752;28;19923;-55
2023/05/27 14:04:24;;;;;;;;;;;22.60;44.60;;;;;;5099265;28;19914;-54
2023/05/27 14:06:49;;;;;;;;;;;22.70;44.10;;;;;;5096938;28;19974;-55
2023/05/27 14:09:15;;;;;;;;;;;22.60;44.00;;;;;;5080736;28;20027;-55